Time;durP1;ratioP1;P1;durP2;ratioP2;P2;SDS_P1;SDS_P2;PMS_P1;PMS_P2;Temp;Humidity;BMP_temperature;BMP_pressure;BME280_temperature;BME280_humidity;BME280_pressure;Samples;Min_cycle;Max_cycle;Signal;HPM_P1;HPM_P2
2023/07/12 00:01:16;;;;;;;6.38;3.10;;;;;;;;;;5073071;28;20045;-77
2023/07/12 00:03:42;;;;;;;8.23;2.97;;;;;;;;;;5084343;28;20036;-77
2023/07/12 00:06:15;;;;;;;4.82;2.63;;;;;;;;;;5072069;28;20447;-76
2023/07/12 00:08:42;;;;;;;7.07;3.05;;;;;;;;;;5072066;28;20125;-77
2023/07/12 00:11:13;;;;;;;5.15;2.78;;;;;;;;;;5070250;28;20457;-77
2023/07/12 00:13:41;;;;;;;5.40;2.90;;;;;;;;;;5071965;28;20048;-77
2023/07/12 00:16:16;;;;;;;6.88;2.92;;;;;;;;;;5070703;28;20408;-77
2023/07/12 00:18:43;;;;;;;5.15;2.75;;;;;;;;;;5072085;28;20067;-77
2023/07/12 00:21:11;;;;;;;5.22;2.90;;;;;;;;;;5071858;28;20090;-76
2023/07/12 00:23:37;;;;;;;6.22;3.10;;;;;;;;;;5070907;28;20127;-76
2023/07/12 00:26:12;;;;;;;5.28;3.10;;;;;;;;;;5070629;28;20045;-76
2023/07/12 00:28:38;;;;;;;5.63;2.88;;;;;;;;;;5071043;28;20047;-77
2023/07/12 00:31:04;;;;;;;6.75;3.05;;;;;;;;;;5071754;28;20079;-76
2023/07/12 00:33:30;;;;;;;5.05;2.97;;;;;;;;;;5070865;28;20491;-76
2023/07/12 00:35:56;;;;;;;7.07;2.97;;;;;;;;;;5071912;28;20086;-76
2023/07/12 00:38:23;;;;;;;5.00;2.90;;;;;;;;;;5070717;28;20048;-77
2023/07/12 00:41:03;;;;;;;5.43;3.17;;;;;;;;;;5071999;28;20049;-76
2023/07/12 00:43:39;;;;;;;5.28;2.60;;;;;;;;;;5071872;28;20033;-76
2023/07/12 00:46:15;;;;;;;5.82;3.00;;;;;;;;;;5084543;28;20048;-77
2023/07/12 00:48:41;;;;;;;5.75;3.00;;;;;;;;;;5094868;28;20461;-76
2023/07/12 00:51:20;;;;;;;6.10;3.05;;;;;;;;;;5086430;28;20131;-76
2023/07/12 00:53:49;;;;;;;4.28;3.10;;;;;;;;;;5095310;28;20055;-77
2023/07/12 00:56:15;;;;;;;6.30;2.85;;;;;;;;;;5076500;28;20466;-76
2023/07/12 00:58:43;;;;;;;10.90;3.35;;;;;;;;;;5075452;28;20032;-77
2023/07/12 01:01:11;;;;;;;6.57;3.28;;;;;;;;;;5076256;28;20040;-76
2023/07/12 01:03:38;;;;;;;5.45;3.20;;;;;;;;;;5088736;28;20122;-76
2023/07/12 01:06:06;;;;;;;6.93;3.20;;;;;;;;;;5095422;28;20341;-77
2023/07/12 01:08:32;;;;;;;7.78;3.28;;;;;;;;;;5090964;28;20051;-77
2023/07/12 01:11:01;;;;;;;6.55;3.03;;;;;;;;;;5070876;28;20057;-76
2023/07/12 01:13:28;;;;;;;5.25;3.05;;;;;;;;;;5066218;28;20088;-76
2023/07/12 01:15:54;;;;;;;5.43;3.00;;;;;;;;;;5074206;28;20392;-77
2023/07/12 01:18:20;;;;;;;5.03;2.85;;;;;;;;;;5087692;28;20045;-76
2023/07/12 01:20:47;;;;;;;5.47;2.97;;;;;;;;;;5067978;28;20128;-76
2023/07/12 01:23:13;;;;;;;7.90;3.20;;;;;;;;;;5075181;28;20556;-77
2023/07/12 01:25:41;;;;;;;5.97;3.35;;;;;;;;;;5075343;28;20432;-76
2023/07/12 01:28:07;;;;;;;6.72;3.50;;;;;;;;;;5077273;28;20103;-76
2023/07/12 01:30:33;;;;;;;5.60;3.00;;;;;;;;;;5079409;28;20396;-76
2023/07/12 01:32:59;;;;;;;8.23;3.33;;;;;;;;;;5093993;28;20044;-76
2023/07/12 01:35:26;;;;;;;7.85;3.38;;;;;;;;;;5095085;28;20040;-76
2023/07/12 01:37:52;;;;;;;7.28;3.40;;;;;;;;;;5095004;28;20407;-76
2023/07/12 01:40:18;;;;;;;8.55;3.60;;;;;;;;;;5093466;28;20405;-77
2023/07/12 01:42:44;;;;;;;5.25;3.50;;;;;;;;;;5093862;28;20055;-77
2023/07/12 01:45:11;;;;;;;6.57;3.78;;;;;;;;;;5090076;28;20364;-77
2023/07/12 01:47:37;;;;;;;6.35;4.30;;;;;;;;;;5074707;28;20504;-77
2023/07/12 01:50:03;;;;;;;6.10;3.78;;;;;;;;;;5075338;28;20051;-77
2023/07/12 01:52:29;;;;;;;9.07;4.20;;;;;;;;;;5093084;28;20174;-77
2023/07/12 01:54:55;;;;;;;7.20;4.10;;;;;;;;;;5094398;28;20047;-77
2023/07/12 01:57:21;;;;;;;10.52;4.22;;;;;;;;;;5092776;28;20531;-77
2023/07/12 01:59:47;;;;;;;7.10;3.85;;;;;;;;;;5092260;28;20037;-77
2023/07/12 02:02:14;;;;;;;8.68;3.95;;;;;;;;;;5073662;28;20091;-77
2023/07/12 02:04:40;;;;;;;8.32;4.25;;;;;;;;;;5073935;28;20044;-76
2023/07/12 02:07:06;;;;;;;6.78;4.10;;;;;;;;;;5074038;28;20073;-77
2023/07/12 02:09:40;;;;;;;8.88;4.30;;;;;;;;;;5075657;28;20059;-76
2023/07/12 02:12:06;;;;;;;6.88;4.43;;;;;;;;;;5091611;28;20130;-77
2023/07/12 02:14:32;;;;;;;6.55;4.15;;;;;;;;;;5093768;28;20048;-75
2023/07/12 02:16:58;;;;;;;9.10;4.70;;;;;;;;;;5092309;28;20453;-76
2023/07/12 02:19:25;;;;;;;8.68;4.43;;;;;;;;;;5079007;28;20083;-75
2023/07/12 02:21:51;;;;;;;10.95;4.90;;;;;;;;;;5089693;28;20055;-75
2023/07/12 02:24:17;;;;;;;9.38;5.03;;;;;;;;;;5075045;28;20119;-76
2023/07/12 02:26:43;;;;;;;10.27;5.07;;;;;;;;;;5063745;28;20131;-76
2023/07/12 02:29:09;;;;;;;12.90;5.15;;;;;;;;;;5073830;28;20052;-76
2023/07/12 02:31:35;;;;;;;13.95;5.38;;;;;;;;;;5087125;28;20043;-77
2023/07/12 02:34:01;;;;;;;11.68;4.70;;;;;;;;;;5092508;28;20058;-77
2023/07/12 02:36:27;;;;;;;11.15;5.40;;;;;;;;;;5091721;28;20197;-77
2023/07/12 02:38:54;;;;;;;11.40;5.30;;;;;;;;;;5091092;28;20538;-76
2023/07/12 02:41:20;;;;;;;8.98;5.07;;;;;;;;;;5080486;28;20048;-76
2023/07/12 02:43:47;;;;;;;10.30;5.28;;;;;;;;;;5073648;28;20047;-76
2023/07/12 02:46:14;;;;;;;9.23;4.97;;;;;;;;;;5086728;28;20393;-77
2023/07/12 02:48:40;;;;;;;12.05;5.35;;;;;;;;;;5091389;28;20473;-77
2023/07/12 02:51:06;;;;;;;18.58;5.85;;;;;;;;;;5082514;28;20041;-76
2023/07/12 02:53:33;;;;;;;12.15;5.18;;;;;;;;;;5071970;28;20044;-76
2023/07/12 02:56:00;;;;;;;11.30;5.28;;;;;;;;;;5073294;28;20048;-76
2023/07/12 02:58:26;;;;;;;13.70;5.35;;;;;;;;;;5073329;28;20044;-77
2023/07/12 03:00:58;;;;;;;12.48;5.32;;;;;;;;;;5072088;28;20086;-76
2023/07/12 03:03:24;;;;;;;12.20;5.38;;;;;;;;;;5072925;28;20456;-77
2023/07/12 03:05:50;;;;;;;12.52;5.25;;;;;;;;;;5091288;28;20044;-76
2023/07/12 03:08:16;;;;;;;12.93;5.30;;;;;;;;;;5092639;28;20116;-77
2023/07/12 03:10:43;;;;;;;12.80;6.00;;;;;;;;;;5084308;28;20075;-77
2023/07/12 03:13:09;;;;;;;11.80;5.40;;;;;;;;;;5092016;28;20044;-77
2023/07/12 03:15:38;;;;;;;13.43;5.45;;;;;;;;;;5092622;28;20051;-77
2023/07/12 03:18:04;;;;;;;11.68;5.40;;;;;;;;;;5058344;28;20071;-77
2023/07/12 03:20:33;;;;;;;12.70;4.70;;;;;;;;;;5071881;28;20048;-77
2023/07/12 03:22:59;;;;;;;10.63;4.60;;;;;;;;;;5072878;28;20040;-76
2023/07/12 03:25:25;;;;;;;15.27;5.28;;;;;;;;;;5072735;28;20397;-76
2023/07/12 03:27:51;;;;;;;12.73;5.10;;;;;;;;;;5072561;28;20040;-76
2023/07/12 03:30:17;;;;;;;11.88;5.50;;;;;;;;;;5074267;28;20028;-77
2023/07/12 03:32:43;;;;;;;12.05;5.50;;;;;;;;;;5092563;28;20044;-77
2023/07/12 03:35:09;;;;;;;15.38;5.90;;;;;;;;;;5084280;28;20060;-76
2023/07/12 03:37:35;;;;;;;15.45;5.68;;;;;;;;;;5072797;28;20041;-77
2023/07/12 03:40:02;;;;;;;14.98;5.25;;;;;;;;;;5072033;28;20056;-77
2023/07/12 03:42:28;;;;;;;15.50;5.60;;;;;;;;;;5072587;28;20052;-77
2023/07/12 03:44:54;;;;;;;15.02;5.43;;;;;;;;;;5072490;28;20066;-77
2023/07/12 03:47:20;;;;;;;14.70;5.40;;;;;;;;;;5072640;28;20079;-76
2023/07/12 03:49:47;;;;;;;13.70;5.22;;;;;;;;;;5072332;28;20389;-76
2023/07/12 03:52:13;;;;;;;14.63;5.40;;;;;;;;;;5070923;28;20045;-76
2023/07/12 03:54:39;;;;;;;16.65;5.57;;;;;;;;;;5071132;28;20040;-76
2023/07/12 03:57:05;;;;;;;13.32;5.45;;;;;;;;;;5072521;28;20045;-77
2023/07/12 03:59:31;;;;;;;17.48;5.60;;;;;;;;;;5072306;28;20427;-76
2023/07/12 04:01:57;;;;;;;13.57;5.35;;;;;;;;;;5077760;28;20044;-76
2023/07/12 04:04:23;;;;;;;13.23;5.65;;;;;;;;;;5072200;28;20487;-77
2023/07/12 04:06:50;;;;;;;16.85;5.72;;;;;;;;;;5071905;28;20040;-77
2023/07/12 04:09:16;;;;;;;15.90;5.47;;;;;;;;;;5082465;28;20528;-77
2023/07/12 04:11:43;;;;;;;14.75;5.38;;;;;;;;;;5083889;28;20492;-75
2023/07/12 04:14:09;;;;;;;15.10;5.50;;;;;;;;;;5089347;28;20177;-76
2023/07/12 04:16:35;;;;;;;15.55;5.47;;;;;;;;;;5072334;28;20041;-76
2023/07/12 04:19:02;;;;;;;15.50;5.70;;;;;;;;;;5083585;28;20040;-76
2023/07/12 04:21:28;;;;;;;14.70;5.53;;;;;;;;;;5083456;28;20036;-76
2023/07/12 04:23:54;;;;;;;17.45;6.00;;;;;;;;;;5077338;28;20504;-76
2023/07/12 04:26:21;;;;;;;17.25;6.05;;;;;;;;;;5075867;28;20145;-77
2023/07/12 04:28:49;;;;;;;15.05;5.50;;;;;;;;;;5073150;28;20072;-76
2023/07/12 04:31:16;;;;;;;18.83;5.95;;;;;;;;;;5081805;28;20049;-76
2023/07/12 04:33:42;;;;;;;18.88;6.03;;;;;;;;;;5095062;28;20071;-76
2023/07/12 04:36:09;;;;;;;14.38;5.15;;;;;;;;;;5077492;28;20113;-76
2023/07/12 04:38:36;;;;;;;15.25;5.35;;;;;;;;;;5074416;28;20055;-79
2023/07/12 04:41:02;;;;;;;15.55;4.97;;;;;;;;;;5076614;28;20480;-79
2023/07/12 04:43:29;;;;;;;21.63;6.03;;;;;;;;;;5075051;28;20052;-79
2023/07/12 04:45:55;;;;;;;15.88;5.13;;;;;;;;;;5087762;28;20075;-79
2023/07/12 04:48:22;;;;;;;18.13;5.78;;;;;;;;;;5096017;28;20447;-79
2023/07/12 04:50:52;;;;;;;17.05;5.55;;;;;;;;;;5093558;28;20062;-79
2023/07/12 04:53:18;;;;;;;13.75;5.45;;;;;;;;;;5087471;28;20520;-79
2023/07/12 04:55:44;;;;;;;19.60;6.63;;;;;;;;;;5094717;28;20046;-79
2023/07/12 04:58:10;;;;;;;16.33;5.78;;;;;;;;;;5090594;28;20046;-79
2023/07/12 05:00:36;;;;;;;17.77;6.65;;;;;;;;;;5075178;28;20045;-79
2023/07/12 05:03:03;;;;;;;16.67;6.22;;;;;;;;;;5074747;28;20136;-79
2023/07/12 05:05:29;;;;;;;22.00;6.90;;;;;;;;;;5074634;28;20040;-79
2023/07/12 05:07:55;;;;;;;17.23;6.75;;;;;;;;;;5080262;28;20134;-79
2023/07/12 05:10:21;;;;;;;17.38;7.10;;;;;;;;;;5085448;28;20279;-74
2023/07/12 05:12:48;;;;;;;17.73;6.50;;;;;;;;;;5075365;28;20131;-74
2023/07/12 05:15:14;;;;;;;16.05;6.35;;;;;;;;;;5074870;28;20527;-74
2023/07/12 05:17:40;;;;;;;20.75;6.75;;;;;;;;;;5070804;28;20052;-74
2023/07/12 05:20:08;;;;;;;23.00;6.40;;;;;;;;;;5073230;28;20045;-74
2023/07/12 05:22:34;;;;;;;14.05;6.18;;;;;;;;;;5093492;28;20055;-74
2023/07/12 05:25:01;;;;;;;14.48;6.68;;;;;;;;;;5085700;28;20044;-74
2023/07/12 05:27:27;;;;;;;14.00;6.28;;;;;;;;;;5083946;28;20123;-74
2023/07/12 05:29:53;;;;;;;14.80;5.88;;;;;;;;;;5078277;28;20059;-74
2023/07/12 05:32:19;;;;;;;17.02;5.97;;;;;;;;;;5082261;28;20063;-74
2023/07/12 05:34:46;;;;;;;21.70;7.18;;;;;;;;;;5085890;28;20413;-74
2023/07/12 05:37:12;;;;;;;15.18;6.40;;;;;;;;;;5085316;28;20116;-74
2023/07/12 05:39:38;;;;;;;16.73;6.70;;;;;;;;;;5073313;28;20417;-74
2023/07/12 05:42:05;;;;;;;20.20;6.38;;;;;;;;;;5075285;28;20044;-74
2023/07/12 05:44:31;;;;;;;15.85;6.93;;;;;;;;;;5078810;28;20040;-74
2023/07/12 05:46:57;;;;;;;24.35;7.00;;;;;;;;;;5064995;28;20052;-73
2023/07/12 05:49:24;;;;;;;21.65;7.35;;;;;;;;;;5075795;28;20056;-74
2023/07/12 05:51:51;;;;;;;17.75;6.30;;;;;;;;;;5074349;28;20041;-74
2023/07/12 05:54:17;;;;;;;17.65;6.10;;;;;;;;;;5081332;28;20480;-74
2023/07/12 05:56:43;;;;;;;19.38;6.57;;;;;;;;;;5092635;28;20145;-74
2023/07/12 05:59:10;;;;;;;20.98;6.28;;;;;;;;;;5094316;28;20424;-74
2023/07/12 06:01:36;;;;;;;15.23;5.88;;;;;;;;;;5091544;28;20123;-75
2023/07/12 06:04:02;;;;;;;18.30;6.70;;;;;;;;;;5091007;28;20393;-74
2023/07/12 06:06:28;;;;;;;21.63;6.20;;;;;;;;;;5065491;28;20080;-74
2023/07/12 06:08:55;;;;;;;16.17;5.82;;;;;;;;;;5072507;28;20481;-74
2023/07/12 06:11:21;;;;;;;21.48;6.28;;;;;;;;;;5074909;28;20061;-74
2023/07/12 06:13:47;;;;;;;18.23;6.25;;;;;;;;;;5074175;28;20481;-74
2023/07/12 06:16:13;;;;;;;16.17;5.78;;;;;;;;;;5074036;28;20051;-74
2023/07/12 06:18:40;;;;;;;19.55;6.78;;;;;;;;;;5073862;28;20052;-74
2023/07/12 06:21:09;;;;;;;16.48;6.13;;;;;;;;;;5073539;28;20071;-74
2023/07/12 06:23:36;;;;;;;13.95;6.32;;;;;;;;;;5081821;28;20519;-74
2023/07/12 06:26:03;;;;;;;13.77;6.40;;;;;;;;;;5093596;28;20036;-74
2023/07/12 06:28:29;;;;;;;16.58;6.20;;;;;;;;;;5089799;28;20560;-74
2023/07/12 06:30:55;;;;;;;20.98;6.68;;;;;;;;;;5084861;28;20064;-74
2023/07/12 06:33:21;;;;;;;20.20;7.15;;;;;;;;;;5053345;28;20163;-74
2023/07/12 06:35:47;;;;;;;16.50;6.70;;;;;;;;;;5053137;28;20541;-74
2023/07/12 06:38:13;;;;;;;20.90;6.80;;;;;;;;;;5071016;28;20079;-74
2023/07/12 06:40:39;;;;;;;18.65;7.28;;;;;;;;;;5073139;28;20052;-74
2023/07/12 06:43:06;;;;;;;18.27;6.57;;;;;;;;;;5070719;28;20518;-74
2023/07/12 06:45:32;;;;;;;14.45;6.22;;;;;;;;;;5072904;28;20040;-74
2023/07/12 06:47:58;;;;;;;15.07;6.00;;;;;;;;;;5073229;28;20045;-74
2023/07/12 06:50:24;;;;;;;14.63;6.60;;;;;;;;;;5069787;28;20048;-74
2023/07/12 06:52:50;;;;;;;15.98;6.20;;;;;;;;;;5072820;28;20115;-74
2023/07/12 06:55:16;;;;;;;14.82;6.95;;;;;;;;;;5071649;28;20044;-74
2023/07/12 06:57:42;;;;;;;14.98;5.75;;;;;;;;;;5073039;28;20040;-74
2023/07/12 07:00:10;;;;;;;16.70;6.10;;;;;;;;;;5072968;28;20044;-71
2023/07/12 07:02:36;;;;;;;15.07;5.65;;;;;;;;;;5073166;28;20047;-71
2023/07/12 07:05:02;;;;;;;16.75;6.63;;;;;;;;;;5071058;28;20055;-71
2023/07/12 07:07:29;;;;;;;18.83;5.47;;;;;;;;;;5071432;28;20392;-71
2023/07/12 07:09:55;;;;;;;15.20;5.22;;;;;;;;;;5072148;28;20052;-71
2023/07/12 07:12:21;;;;;;;17.25;5.68;;;;;;;;;;5052933;28;20033;-71
2023/07/12 07:14:47;;;;;;;13.63;4.95;;;;;;;;;;5052653;28;20091;-73
2023/07/12 07:17:13;;;;;;;14.50;4.72;;;;;;;;;;5053756;28;20041;-71
2023/07/12 07:19:40;;;;;;;17.05;5.05;;;;;;;;;;5073330;28;20052;-70
2023/07/12 07:22:06;;;;;;;16.33;4.88;;;;;;;;;;5072268;28;20048;-71
2023/07/12 07:24:32;;;;;;;18.80;4.90;;;;;;;;;;5089004;28;20048;-69
2023/07/12 07:26:58;;;;;;;12.25;4.38;;;;;;;;;;5087467;28;20045;-69
2023/07/12 07:29:24;;;;;;;17.92;4.57;;;;;;;;;;5072447;28;20052;-69
2023/07/12 07:31:50;;;;;;;17.60;4.40;;;;;;;;;;5085705;28;20461;-69
2023/07/12 07:34:17;;;;;;;13.45;3.92;;;;;;;;;;5082662;28;20138;-69
2023/07/12 07:36:43;;;;;;;12.95;4.28;;;;;;;;;;5084370;28;20090;-70
2023/07/12 07:39:09;;;;;;;12.57;4.82;;;;;;;;;;5074789;28;20158;-69
2023/07/12 07:41:35;;;;;;;14.38;4.18;;;;;;;;;;5084304;28;20123;-70
2023/07/12 07:44:02;;;;;;;12.85;3.95;;;;;;;;;;5081161;28;20137;-69
2023/07/12 07:46:28;;;;;;;11.48;3.75;;;;;;;;;;5092575;28;20051;-69
2023/07/12 07:48:54;;;;;;;13.43;3.83;;;;;;;;;;5092612;28;20080;-69
2023/07/12 07:51:20;;;;;;;13.70;3.85;;;;;;;;;;5091362;28;20044;-69
2023/07/12 07:53:47;;;;;;;14.65;4.15;;;;;;;;;;5078372;28;20378;-70
2023/07/12 07:56:13;;;;;;;14.32;3.85;;;;;;;;;;5071545;28;20044;-70
2023/07/12 07:58:40;;;;;;;10.40;3.40;;;;;;;;;;5082990;28;20152;-70
2023/07/12 08:01:06;;;;;;;11.60;3.50;;;;;;;;;;5069417;28;20052;-70
2023/07/12 08:03:33;;;;;;;8.63;3.10;;;;;;;;;;5056937;28;20142;-69
2023/07/12 08:06:06;;;;;;;8.90;3.03;;;;;;;;;;5050474;28;20079;-70
2023/07/12 08:08:34;;;;;;;11.38;2.80;;;;;;;;;;5051748;28;20060;-69
2023/07/12 08:11:01;;;;;;;9.57;3.30;;;;;;;;;;5051683;28;20131;-69
2023/07/12 08:13:27;;;;;;;8.65;2.90;;;;;;;;;;5052088;28;20049;-70
2023/07/12 08:15:56;;;;;;;8.32;2.90;;;;;;;;;;5051545;28;20056;-70
2023/07/12 08:18:22;;;;;;;12.90;2.92;;;;;;;;;;5051940;28;20128;-69
2023/07/12 08:20:48;;;;;;;9.90;2.83;;;;;;;;;;5051610;28;20048;-69
2023/07/12 08:23:15;;;;;;;11.43;3.40;;;;;;;;;;5052006;28;20048;-69
2023/07/12 08:25:41;;;;;;;9.55;3.55;;;;;;;;;;5051835;28;20402;-69
2023/07/12 08:28:07;;;;;;;9.68;2.95;;;;;;;;;;5051911;28;20048;-69
2023/07/12 08:30:33;;;;;;;8.25;2.67;;;;;;;;;;5055931;28;20040;-69
2023/07/12 08:32:59;;;;;;;9.23;2.88;;;;;;;;;;5066617;28;20056;-69
2023/07/12 08:35:26;;;;;;;8.88;2.75;;;;;;;;;;5069812;28;20464;-69
2023/07/12 08:37:52;;;;;;;7.82;2.63;;;;;;;;;;5067562;28;20051;-70
2023/07/12 08:40:18;;;;;;;8.38;3.08;;;;;;;;;;5069910;28;20055;-70
2023/07/12 08:42:45;;;;;;;10.30;2.90;;;;;;;;;;5072265;28;20048;-70
2023/07/12 08:45:19;;;;;;;6.80;2.80;;;;;;;;;;5070870;28;20032;-70
2023/07/12 08:47:46;;;;;;;8.55;2.53;;;;;;;;;;5073519;28;20070;-70
2023/07/12 08:50:16;;;;;;;9.00;2.53;;;;;;;;;;5069678;28;20040;-70
2023/07/12 08:52:43;;;;;;;10.05;2.75;;;;;;;;;;5071651;28;20528;-70
2023/07/12 08:55:13;;;;;;;12.15;3.92;;;;;;;;;;5071192;28;20139;-68
2023/07/12 08:57:41;;;;;;;9.00;3.70;;;;;;;;;;5072013;28;20048;-70
2023/07/12 09:00:20;;;;;;;10.07;3.67;;;;;;;;;;5071503;28;20079;-71
2023/07/12 09:02:47;;;;;;;11.07;3.83;;;;;;;;;;5065873;28;20032;-69
2023/07/12 09:05:17;;;;;;;11.45;3.45;;;;;;;;;;5070574;28;21052;-69
2023/07/12 09:07:55;;;;;;;9.73;3.80;;;;;;;;;;5073124;28;20447;-69
2023/07/12 09:10:29;;;;;;;11.63;4.03;;;;;;;;;;5053806;28;20454;-69
2023/07/12 09:12:58;;;;;;;12.40;3.95;;;;;;;;;;5072200;28;20048;-69
2023/07/12 09:15:31;;;;;;;10.23;3.20;;;;;;;;;;5074582;28;20110;-70
2023/07/12 09:17:57;;;;;;;12.52;3.50;;;;;;;;;;5070824;28;20497;-69
2023/07/12 09:20:28;;;;;;;10.30;3.45;;;;;;;;;;5074164;28;20401;-69
2023/07/12 09:22:55;;;;;;;9.65;3.38;;;;;;;;;;5072679;28;20036;-69
2023/07/12 09:25:24;;;;;;;7.47;2.83;;;;;;;;;;5074185;28;20134;-69
2023/07/12 09:27:50;;;;;;;8.18;2.97;;;;;;;;;;5078047;28;20114;-69
2023/07/12 09:30:26;;;;;;;12.75;3.28;;;;;;;;;;5084573;28;20374;-70
2023/07/12 09:32:54;;;;;;;9.43;3.08;;;;;;;;;;5054090;28;20401;-70
2023/07/12 09:35:23;;;;;;;14.45;3.00;;;;;;;;;;5062273;28;20032;-69
2023/07/12 09:38:00;;;;;;;8.15;2.55;;;;;;;;;;5074736;28;20037;-69
2023/07/12 09:40:29;;;;;;;8.05;2.70;;;;;;;;;;5074227;28;20043;-69
2023/07/12 09:42:57;;;;;;;9.13;3.00;;;;;;;;;;5057892;28;20049;-69
2023/07/12 09:45:27;;;;;;;8.55;2.80;;;;;;;;;;5074426;28;20055;-69
2023/07/12 09:48:05;;;;;;;8.75;2.83;;;;;;;;;;5075331;28;20079;-69
2023/07/12 09:50:35;;;;;;;10.10;2.92;;;;;;;;;;5077005;28;20052;-70
2023/07/12 09:53:16;;;;;;;10.00;3.03;;;;;;;;;;5076626;28;20048;-70
2023/07/12 09:55:50;;;;;;;9.60;3.17;;;;;;;;;;5074462;28;20049;-69
2023/07/12 09:58:34;;;;;;;7.10;2.80;;;;;;;;;;5074996;28;20106;-70
2023/07/12 10:01:12;;;;;;;8.68;2.65;;;;;;;;;;5074080;28;20040;-69
2023/07/12 10:03:41;;;;;;;11.25;3.03;;;;;;;;;;5072523;28;20045;-68
2023/07/12 10:06:28;;;;;;;7.68;2.67;;;;;;;;;;5070613;28;20477;-69
2023/07/12 10:09:09;;;;;;;6.32;2.25;;;;;;;;;;5073271;28;20056;-69
2023/07/12 10:11:39;;;;;;;8.80;2.63;;;;;;;;;;5061340;28;20049;-70
2023/07/12 10:14:08;;;;;;;6.20;2.30;;;;;;;;;;5077683;28;20574;-69
2023/07/12 10:16:39;;;;;;;9.57;2.47;;;;;;;;;;5079954;28;20415;-70
2023/07/12 10:19:22;;;;;;;8.70;2.40;;;;;;;;;;5053171;28;20167;-70
2023/07/12 10:21:50;;;;;;;6.15;2.15;;;;;;;;;;5053348;28;20056;-70
2023/07/12 10:24:16;;;;;;;6.65;2.20;;;;;;;;;;5082618;28;20044;-73
2023/07/12 10:26:44;;;;;;;7.47;2.28;;;;;;;;;;5080915;28;20089;-74
2023/07/12 10:29:17;;;;;;;5.80;2.40;;;;;;;;;;5090765;28;20411;-71
2023/07/12 10:31:51;;;;;;;6.82;2.47;;;;;;;;;;5091606;28;20044;-70
2023/07/12 10:34:29;;;;;;;9.18;2.30;;;;;;;;;;5095044;28;20491;-73
2023/07/12 10:36:56;;;;;;;5.03;1.98;;;;;;;;;;5088670;28;20044;-71
2023/07/12 10:39:25;;;;;;;6.72;1.92;;;;;;;;;;5090344;28;20127;-73
2023/07/12 10:41:55;;;;;;;5.55;2.13;;;;;;;;;;5090396;28;20040;-72
2023/07/12 10:44:23;;;;;;;5.10;2.05;;;;;;;;;;5090399;28;20051;-72
2023/07/12 10:46:52;;;;;;;5.90;2.25;;;;;;;;;;5089007;28;20048;-72
2023/07/12 10:49:21;;;;;;;5.00;2.08;;;;;;;;;;5078184;28;20440;-70
2023/07/12 10:52:18;;;;;;;7.72;2.35;;;;;;;;;;5072734;28;20076;-70
2023/07/12 10:55:06;;;;;;;5.43;2.15;;;;;;;;;;5067752;28;20064;-73
2023/07/12 10:57:39;;;;;;;6.45;1.90;;;;;;;;;;5073769;28;20048;-73
2023/07/12 11:00:25;;;;;;;6.20;2.40;;;;;;;;;;5052462;28;20060;-73
2023/07/12 11:03:00;;;;;;;8.48;2.15;;;;;;;;;;5052400;28;20060;-73
2023/07/12 11:05:26;;;;;;;;;;;;;;;;;;5051672;28;20091;-73
2023/07/12 11:07:54;;;;;;;5.75;2.08;;;;;;;;;;5052851;28;19997;-72
2023/07/12 11:10:24;;;;;;;8.27;2.03;;;;;;;;;;5051528;28;20060;-73
2023/07/12 11:12:53;;;;;;;4.53;1.50;;;;;;;;;;5052999;28;20385;-73
2023/07/12 11:15:25;;;;;;;5.25;1.75;;;;;;;;;;5052216;28;20500;-73
2023/07/12 11:18:03;;;;;;;4.47;1.83;;;;;;;;;;5052728;28;20401;-73
2023/07/12 11:20:35;;;;;;;6.95;1.85;;;;;;;;;;5052566;28;20421;-73
2023/07/12 11:23:07;;;;;;;5.22;2.00;;;;;;;;;;5052692;28;20148;-73
2023/07/12 11:25:49;;;;;;;4.55;1.77;;;;;;;;;;5052149;28;20052;-73
2023/07/12 11:28:21;;;;;;;3.85;1.30;;;;;;;;;;5052298;28;20102;-74
2023/07/12 11:30:48;;;;;;;4.60;1.40;;;;;;;;;;5051570;28;20056;-72
2023/07/12 11:33:34;;;;;;;4.38;1.50;;;;;;;;;;5083894;28;20052;-72
2023/07/12 11:36:01;;;;;;;3.00;1.40;;;;;;;;;;5051907;28;20045;-73
2023/07/12 11:38:29;;;;;;;6.03;1.67;;;;;;;;;;5052120;28;20041;-73
2023/07/12 11:40:57;;;;;;;4.53;1.60;;;;;;;;;;5052193;28;20049;-73
2023/07/12 11:43:23;;;;;;;5.45;1.50;;;;;;;;;;5052197;28;20128;-73
2023/07/12 11:45:54;;;;;;;3.10;1.40;;;;;;;;;;5050188;28;20545;-73
2023/07/12 11:48:20;;;;;;;3.20;1.40;;;;;;;;;;5051640;28;20413;-73
2023/07/12 11:50:50;;;;;;;3.13;1.23;;;;;;;;;;5084866;28;20409;-73
2023/07/12 11:53:17;;;;;;;2.90;1.30;;;;;;;;;;5052089;28;20596;-73
2023/07/12 11:55:43;;;;;;;4.45;1.40;;;;;;;;;;5052176;28;20130;-74
2023/07/12 11:58:15;;;;;;;3.15;1.20;;;;;;;;;;5052034;28;20049;-73
2023/07/12 12:00:41;;;;;;;3.08;1.23;;;;;;;;;;5051764;28;20444;-72
2023/07/12 12:03:07;;;;;;;3.50;1.45;;;;;;;;;;5091757;28;20497;-73
2023/07/12 12:05:34;;;;;;;4.53;1.63;;;;;;;;;;5083746;28;20136;-72
2023/07/12 12:08:02;;;;;;;3.08;1.20;;;;;;;;;;5062846;28;20048;-73
2023/07/12 12:10:30;;;;;;;6.03;1.40;;;;;;;;;;5067446;28;20353;-73
2023/07/12 12:12:56;;;;;;;3.67;1.20;;;;;;;;;;5069111;28;20053;-78
2023/07/12 12:15:27;;;;;;;3.33;1.20;;;;;;;;;;5093931;28;20393;-70
2023/07/12 12:17:55;;;;;;;3.72;1.40;;;;;;;;;;5066107;28;20417;-70
2023/07/12 12:20:23;;;;;;;3.70;1.30;;;;;;;;;;5069255;28;20091;-70
2023/07/12 12:22:51;;;;;;;3.72;1.02;;;;;;;;;;5071883;28;20102;-70
2023/07/12 12:25:19;;;;;;;2.75;1.13;;;;;;;;;;5070485;28;20051;-70
2023/07/12 12:27:46;;;;;;;4.25;1.02;;;;;;;;;;5071870;28;20048;-71
2023/07/12 12:30:15;;;;;;;4.55;1.23;;;;;;;;;;5073189;28;20063;-70
2023/07/12 12:32:43;;;;;;;3.80;1.10;;;;;;;;;;5073524;28;20044;-70
2023/07/12 12:35:13;;;;;;;2.20;1.10;;;;;;;;;;5090917;28;20052;-71
2023/07/12 12:37:40;;;;;;;5.25;1.17;;;;;;;;;;5092118;28;20059;-70
2023/07/12 12:40:17;;;;;;;4.13;1.40;;;;;;;;;;5090857;28;20421;-70
2023/07/12 12:42:58;;;;;;;3.50;1.40;;;;;;;;;;5092258;28;20044;-70
2023/07/12 12:45:27;;;;;;;4.40;1.30;;;;;;;;;;5095422;28;20382;-70
2023/07/12 12:47:53;;;;;;;3.85;1.10;;;;;;;;;;5093462;28;20130;-69
2023/07/12 12:50:20;;;;;;;2.83;1.17;;;;;;;;;;5094523;28;20048;-70
2023/07/12 12:52:46;;;;;;;3.47;1.30;;;;;;;;;;5095591;28;20076;-69
2023/07/12 12:55:13;;;;;;;4.57;1.20;;;;;;;;;;5092246;28;20051;-70
2023/07/12 12:57:40;;;;;;;3.60;1.40;;;;;;;;;;5077892;28;20040;-70
2023/07/12 13:00:15;;;;;;;6.53;1.50;;;;;;;;;;5090271;28;20044;-70
2023/07/12 13:02:42;;;;;;;4.55;1.42;;;;;;;;;;5077611;28;20143;-70
2023/07/12 13:05:08;;;;;;;5.28;1.30;;;;;;;;;;5095273;28;20040;-69
2023/07/12 13:07:36;;;;;;;6.13;1.60;;;;;;;;;;5095062;28;20044;-71
2023/07/12 13:10:03;;;;;;;4.95;1.20;;;;;;;;;;5091372;28;20048;-70
2023/07/12 13:12:33;;;;;;;5.28;1.30;;;;;;;;;;5061048;28;20057;-69
2023/07/12 13:14:59;;;;;;;2.38;1.00;;;;;;;;;;5073847;28;20044;-70
2023/07/12 13:17:27;;;;;;;5.80;1.25;;;;;;;;;;5086665;28;20498;-69
2023/07/12 13:19:54;;;;;;;1.63;1.02;;;;;;;;;;5073308;28;20396;-70
2023/07/12 13:22:22;;;;;;;3.70;1.15;;;;;;;;;;5074813;28;20114;-69
2023/07/12 13:24:49;;;;;;;4.10;1.20;;;;;;;;;;5075009;28;20492;-70
2023/07/12 13:27:27;;;;;;;5.13;1.40;;;;;;;;;;5074970;28;20032;-69
2023/07/12 13:29:54;;;;;;;2.22;0.93;;;;;;;;;;5073646;28;20494;-69
2023/07/12 13:32:20;;;;;;;5.68;1.50;;;;;;;;;;5086186;28;20396;-70
2023/07/12 13:34:47;;;;;;;4.47;1.42;;;;;;;;;;5075381;28;20055;-69
2023/07/12 13:37:16;;;;;;;3.60;1.25;;;;;;;;;;5085820;28;20565;-69
2023/07/12 13:39:42;;;;;;;4.03;1.20;;;;;;;;;;5054155;28;20049;-71
2023/07/12 13:42:09;;;;;;;3.15;1.00;;;;;;;;;;5065742;28;20071;-70
2023/07/12 13:44:35;;;;;;;2.95;1.20;;;;;;;;;;5062186;28;20045;-70
2023/07/12 13:47:01;;;;;;;2.45;1.10;;;;;;;;;;5070531;28;20041;-70
2023/07/12 13:49:28;;;;;;;7.68;1.30;;;;;;;;;;5070672;28;20072;-70
2023/07/12 13:51:54;;;;;;;3.55;1.20;;;;;;;;;;5065741;28;20048;-70
2023/07/12 13:54:20;;;;;;;3.92;1.33;;;;;;;;;;5066421;28;20132;-70
2023/07/12 13:56:47;;;;;;;3.78;1.20;;;;;;;;;;5074563;28;20398;-71
2023/07/12 13:59:13;;;;;;;3.30;1.38;;;;;;;;;;5074304;28;20054;-70
2023/07/12 14:01:40;;;;;;;3.72;1.30;;;;;;;;;;5073293;28;20191;-70
2023/07/12 14:04:10;;;;;;;4.43;1.30;;;;;;;;;;5073844;28;20097;-70
2023/07/12 14:06:37;;;;;;;4.30;1.70;;;;;;;;;;5073781;28;20311;-69
2023/07/12 14:09:03;;;;;;;3.10;1.35;;;;;;;;;;5073462;28;20125;-69
2023/07/12 14:11:31;;;;;;;3.80;1.30;;;;;;;;;;5062072;28;20052;-69
2023/07/12 14:13:57;;;;;;;2.13;1.20;;;;;;;;;;5053709;28;20696;-70
2023/07/12 14:16:24;;;;;;;5.75;1.25;;;;;;;;;;5067865;28;20407;-69
2023/07/12 14:18:50;;;;;;;3.22;1.40;;;;;;;;;;5054286;28;20041;-70
2023/07/12 14:21:18;;;;;;;4.55;1.38;;;;;;;;;;5052898;28;20056;-69
2023/07/12 14:23:44;;;;;;;3.78;1.45;;;;;;;;;;5053709;28;20068;-69
2023/07/12 14:26:17;;;;;;;4.60;1.42;;;;;;;;;;5053956;28;20489;-70
2023/07/12 14:28:44;;;;;;;3.53;1.50;;;;;;;;;;5073435;28;20405;-70
2023/07/12 14:31:23;;;;;;;4.30;1.30;;;;;;;;;;5070678;28;20067;-71
2023/07/12 14:33:51;;;;;;;3.80;1.40;;;;;;;;;;5060889;28;20044;-70
2023/07/12 14:36:19;;;;;;;3.60;1.30;;;;;;;;;;5070908;28;20052;-71
2023/07/12 14:38:46;;;;;;;1.80;1.08;;;;;;;;;;5070944;28;20389;-72
2023/07/12 14:41:23;;;;;;;2.95;1.40;;;;;;;;;;5073141;28;20082;-71
2023/07/12 14:43:49;;;;;;;3.55;1.23;;;;;;;;;;5073202;28;20059;-71